Time;durP1;ratioP1;P1;durP2;ratioP2;P2;SDS_P1;SDS_P2;PMS_P1;PMS_P2;Temp;Humidity;BMP_temperature;BMP_pressure;BME280_temperature;BME280_humidity;BME280_pressure;Samples;Min_cycle;Max_cycle;Signal;HPM_P1;HPM_P2
2021/10/14 02:46:07;;;;;;;11.50;6.80;;;7.40;93.80;;;;;;5389682;24;20119;-78
2021/10/14 02:48:33;;;;;;;10.40;6.78;;;7.40;93.80;;;;;;4781117;29;20059;-78
2021/10/14 02:50:59;;;;;;;10.48;6.07;;;7.40;93.90;;;;;;4769341;29;20060;-78
2021/10/14 02:53:25;;;;;;;10.60;6.47;;;7.40;93.90;;;;;;4780552;30;20331;-78
2021/10/14 02:55:50;;;;;;;11.00;7.28;;;7.40;93.90;;;;;;4781133;29;20085;-78
2021/10/14 02:58:16;;;;;;;10.63;6.78;;;7.40;94.00;;;;;;4770047;30;20043;-78
2021/10/14 03:00:42;;;;;;;14.73;7.68;;;7.40;94.00;;;;;;4764339;30;20262;-78
2021/10/14 03:03:07;;;;;;;13.07;7.80;;;7.30;94.10;;;;;;4775382;30;20040;-78
2021/10/14 03:05:33;;;;;;;12.65;6.85;;;7.30;94.20;;;;;;4770409;30;20058;-78
2021/10/14 03:07:59;;;;;;;13.45;7.72;;;7.30;94.20;;;;;;4778452;30;20028;-78
2021/10/14 03:10:25;;;;;;;8.77;6.25;;;7.40;94.20;;;;;;4771714;29;20032;-78
2021/10/14 03:12:51;;;;;;;12.70;7.30;;;7.40;94.20;;;;;;4766768;30;20031;-78
2021/10/14 03:15:17;;;;;;;12.10;7.00;;;7.40;94.30;;;;;;4772050;29;20098;-78
2021/10/14 03:17:43;;;;;;;13.65;7.88;;;7.40;94.30;;;;;;4774994;30;20331;-78
2021/10/14 03:20:10;;;;;;;11.55;6.82;;;7.40;94.40;;;;;;4764943;30;20334;-78
2021/10/14 03:22:35;;;;;;;10.68;7.22;;;7.40;94.50;;;;;;4772796;29;20327;-78
2021/10/14 03:25:01;;;;;;;13.23;7.07;;;7.40;94.60;;;;;;4764169;30;20040;-78
2021/10/14 03:27:27;;;;;;;11.85;7.75;;;7.30;94.60;;;;;;4774351;30;20140;-78
2021/10/14 03:29:53;;;;;;;12.75;7.30;;;7.40;94.60;;;;;;4774363;29;20103;-78
2021/10/14 03:32:19;;;;;;;12.10;7.45;;;7.40;94.60;;;;;;4779760;29;20032;-78
2021/10/14 03:34:44;;;;;;;12.13;6.80;;;7.40;94.50;;;;;;4775011;30;20319;-78
2021/10/14 03:37:10;;;;;;;11.23;8.25;;;7.40;94.50;;;;;;4762488;30;20032;-78
2021/10/14 03:39:36;;;;;;;13.07;7.53;;;7.40;94.50;;;;;;4762527;29;20503;-78
2021/10/14 03:42:02;;;;;;;11.43;6.97;;;7.40;94.60;;;;;;4762684;30;20270;-78
2021/10/14 03:44:27;;;;;;;13.65;7.75;;;7.40;94.60;;;;;;4773416;30;20063;-78
2021/10/14 03:46:53;;;;;;;11.57;7.65;;;7.40;94.60;;;;;;4778615;29;20067;-78
2021/10/14 03:49:19;;;;;;;15.95;8.23;;;7.40;94.60;;;;;;4763307;30;20177;-78
2021/10/14 03:51:45;;;;;;;11.73;7.55;;;7.40;94.50;;;;;;4756327;30;20111;-78
2021/10/14 03:54:10;;;;;;;11.20;7.55;;;7.30;94.40;;;;;;4758363;30;20228;-78
2021/10/14 03:56:36;;;;;;;12.02;7.10;;;7.30;94.50;;;;;;4760389;30;20197;-78
2021/10/14 03:59:02;;;;;;;11.30;6.90;;;7.30;94.70;;;;;;4752979;30;20113;-78
2021/10/14 04:01:28;;;;;;;10.77;7.38;;;7.30;94.70;;;;;;4759530;30;20032;-78
2021/10/14 04:03:55;;;;;;;12.88;7.80;;;7.30;94.60;;;;;;4747202;30;20044;-78
2021/10/14 04:06:20;;;;;;;11.32;7.60;;;7.30;94.60;;;;;;4753152;30;20106;-78
2021/10/14 04:08:46;;;;;;;11.10;7.32;;;7.30;94.60;;;;;;4747613;30;20037;-78
2021/10/14 04:11:12;;;;;;;11.77;7.20;;;7.30;94.70;;;;;;4756155;30;20040;-78
2021/10/14 04:13:38;;;;;;;11.35;7.20;;;7.30;94.60;;;;;;4744363;30;20309;-78
2021/10/14 04:16:04;;;;;;;14.65;7.88;;;7.30;94.60;;;;;;4745237;30;20024;-78
2021/10/14 04:18:29;;;;;;;17.45;10.00;;;7.30;94.60;;;;;;4751463;30;20054;-78
2021/10/14 04:20:55;;;;;;;12.38;8.57;;;7.30;94.50;;;;;;4762002;30;20040;-78
2021/10/14 04:23:23;;;;;;;13.75;8.35;;;7.20;94.40;;;;;;4755921;30;20032;-78
2021/10/14 04:25:48;;;;;;;16.30;8.02;;;7.10;94.50;;;;;;4761158;30;20031;-78
2021/10/14 04:28:14;;;;;;;12.77;7.45;;;7.10;94.40;;;;;;4744382;30;20331;-78
2021/10/14 04:30:40;;;;;;;17.15;10.35;;;7.10;94.60;;;;;;4755583;30;20037;-78
2021/10/14 04:33:06;;;;;;;11.90;7.25;;;7.00;94.50;;;;;;4749802;30;20328;-78
2021/10/14 04:35:32;;;;;;;15.43;9.38;;;6.90;94.60;;;;;;4749837;30;20029;-78
2021/10/14 04:37:57;;;;;;;13.05;8.52;;;6.80;94.90;;;;;;4744018;30;20032;-78
2021/10/14 04:40:23;;;;;;;14.25;8.32;;;6.80;95.30;;;;;;4760321;30;20024;-78
2021/10/14 04:42:49;;;;;;;19.65;8.65;;;6.80;95.50;;;;;;4749500;30;20035;-78
2021/10/14 04:45:16;;;;;;;14.52;8.00;;;6.80;95.50;;;;;;4761271;30;20111;-78
2021/10/14 04:47:41;;;;;;;15.07;7.97;;;6.80;95.60;;;;;;4761383;30;20047;-78
2021/10/14 04:50:08;;;;;;;15.52;8.20;;;6.80;96.10;;;;;;4756439;30;20375;-78
2021/10/14 04:52:34;;;;;;;14.75;8.77;;;6.80;95.80;;;;;;4751843;30;20036;-78
2021/10/14 04:55:00;;;;;;;14.33;9.43;;;6.90;95.40;;;;;;4748313;30;20031;-78
2021/10/14 04:57:26;;;;;;;15.43;9.35;;;6.90;95.20;;;;;;4758325;30;20332;-78
2021/10/14 04:59:52;;;;;;;16.23;9.50;;;6.80;95.00;;;;;;4752534;30;20044;-78
2021/10/14 05:02:18;;;;;;;16.83;9.05;;;6.80;95.00;;;;;;4758578;30;20244;-78
2021/10/14 05:04:44;;;;;;;18.00;9.38;;;6.80;95.10;;;;;;4743449;30;20032;-78
2021/10/14 05:07:10;;;;;;;13.75;9.38;;;6.70;95.00;;;;;;4743669;30;20101;-78
2021/10/14 05:09:35;;;;;;;18.08;8.82;;;6.60;95.20;;;;;;4751415;30;20064;-78
2021/10/14 05:12:01;;;;;;;12.65;7.68;;;6.60;95.80;;;;;;4747713;30;20111;-78
2021/10/14 05:14:27;;;;;;;13.50;8.05;;;6.70;96.00;;;;;;4756618;30;20047;-78
2021/10/14 05:16:53;;;;;;;14.73;8.30;;;6.70;95.90;;;;;;4754192;30;20052;-78
2021/10/14 05:19:19;;;;;;;12.25;8.40;;;6.80;95.90;;;;;;4750166;30;20035;-78
2021/10/14 05:21:44;;;;;;;18.05;8.20;;;6.80;95.80;;;;;;4748592;30;20044;-78
2021/10/14 05:24:10;;;;;;;14.02;8.93;;;6.90;95.70;;;;;;4749459;30;20224;-78
2021/10/14 05:26:36;;;;;;;13.88;7.90;;;6.90;95.60;;;;;;4749047;30;20032;-78
2021/10/14 05:29:02;;;;;;;14.07;8.38;;;7.00;95.50;;;;;;4769563;30;20035;-78
2021/10/14 05:31:27;;;;;;;13.50;8.20;;;7.00;95.40;;;;;;4749101;30;20024;-79
2021/10/14 05:33:54;;;;;;;15.60;8.27;;;7.00;95.30;;;;;;4754230;30;20284;-79
2021/10/14 05:36:20;;;;;;;18.70;9.23;;;7.10;95.30;;;;;;4752953;30;20664;-78
2021/10/14 05:38:46;;;;;;;20.52;8.68;;;7.10;95.30;;;;;;4751397;30;20052;-78
2021/10/14 05:41:12;;;;;;;18.77;9.07;;;7.10;95.20;;;;;;4752625;30;20032;-78
2021/10/14 05:43:38;;;;;;;19.73;9.70;;;7.20;95.10;;;;;;4748539;30;20067;-78
2021/10/14 05:46:04;;;;;;;21.35;10.07;;;7.30;95.10;;;;;;4738198;30;20060;-78
2021/10/14 05:48:29;;;;;;;18.38;9.85;;;7.30;95.00;;;;;;4752889;30;20347;-78
2021/10/14 05:50:55;;;;;;;18.77;9.85;;;7.40;94.90;;;;;;4754591;30;20138;-78
2021/10/14 05:53:21;;;;;;;24.02;10.23;;;7.40;94.70;;;;;;4773240;29;20051;-78
2021/10/14 05:55:48;;;;;;;18.88;10.25;;;7.50;94.80;;;;;;4754981;30;20040;-78
2021/10/14 05:58:15;;;;;;;14.75;9.85;;;7.60;94.70;;;;;;4759509;30;20339;-78
2021/10/14 06:00:40;;;;;;;20.17;10.85;;;7.60;94.50;;;;;;4755180;30;20051;-78
2021/10/14 06:03:06;;;;;;;20.65;10.65;;;7.70;94.40;;;;;;4754656;30;20232;-78
2021/10/14 06:05:32;;;;;;;19.85;11.23;;;7.70;94.30;;;;;;4752998;30;20111;-78
2021/10/14 06:07:58;;;;;;;22.38;11.50;;;7.70;94.30;;;;;;4750656;30;20042;-77
2021/10/14 06:10:23;;;;;;;22.95;10.45;;;7.80;94.10;;;;;;4753445;30;20040;-78
2021/10/14 06:12:49;;;;;;;20.60;10.88;;;7.80;94.10;;;;;;4750814;30;20089;-78
2021/10/14 06:15:17;;;;;;;21.98;11.68;;;7.90;94.00;;;;;;4757635;30;20045;-78
2021/10/14 06:17:43;;;;;;;21.98;12.80;;;8.00;94.00;;;;;;4773806;29;20024;-78
2021/10/14 06:20:09;;;;;;;19.92;11.05;;;8.00;93.90;;;;;;4750832;30;20048;-78
2021/10/14 06:22:35;;;;;;;18.48;11.80;;;8.10;93.90;;;;;;4742309;30;20116;-78
2021/10/14 06:25:01;;;;;;;20.88;11.63;;;8.20;93.70;;;;;;4756671;30;20040;-78
2021/10/14 06:27:27;;;;;;;20.77;11.30;;;8.30;93.50;;;;;;4757230;30;20324;-79
2021/10/14 06:29:54;;;;;;;18.33;10.45;;;8.40;93.30;;;;;;4754662;30;20043;-79
2021/10/14 06:32:20;;;;;;;16.67;10.38;;;8.50;93.20;;;;;;4753404;30;20151;-78
2021/10/14 06:34:46;;;;;;;18.27;10.77;;;8.70;93.10;;;;;;4753058;30;20036;-78
2021/10/14 06:37:11;;;;;;;15.30;9.40;;;8.80;92.70;;;;;;4755961;30;20058;-78
2021/10/14 06:39:37;;;;;;;18.05;10.35;;;8.90;92.40;;;;;;4755346;30;20033;-79
2021/10/14 06:42:03;;;;;;;19.08;10.40;;;9.00;92.20;;;;;;4755545;30;20040;-79
2021/10/14 06:44:29;;;;;;;15.23;10.48;;;9.10;92.20;;;;;;4759665;30;20020;-78
2021/10/14 06:46:55;;;;;;;18.05;10.25;;;9.20;92.00;;;;;;4760449;30;20243;-79
2021/10/14 06:49:21;;;;;;;17.63;9.25;;;9.30;91.80;;;;;;4741472;30;20032;-78
2021/10/14 06:51:47;;;;;;;17.85;8.95;;;9.40;91.90;;;;;;4752955;30;20036;-78
2021/10/14 06:54:13;;;;;;;16.48;9.75;;;9.50;91.00;;;;;;4751769;30;20028;-78
2021/10/14 06:56:39;;;;;;;11.50;7.75;;;9.50;91.30;;;;;;4744485;30;20042;-78
2021/10/14 06:59:04;;;;;;;13.75;8.00;;;9.60;91.10;;;;;;4756545;30;20016;-78
2021/10/14 07:01:30;;;;;;;14.27;8.38;;;9.70;91.10;;;;;;4736524;30;20031;-78
2021/10/14 07:03:56;;;;;;;15.45;9.38;;;9.80;90.90;;;;;;4761075;30;20335;-78
2021/10/14 07:06:22;;;;;;;17.73;7.97;;;9.90;90.80;;;;;;4736738;30;20070;-79
2021/10/14 07:08:48;;;;;;;15.73;8.57;;;10.00;90.40;;;;;;4759207;30;20335;-79
2021/10/14 07:11:13;;;;;;;15.13;8.60;;;9.90;89.60;;;;;;4756676;30;20311;-79
2021/10/14 07:13:44;;;;;;;15.07;7.80;;;10.00;90.10;;;;;;4744617;30;20074;-79
2021/10/14 07:16:10;;;;;;;13.75;8.68;;;10.00;90.20;;;;;;4758437;30;20038;-79
2021/10/14 07:18:35;;;;;;;12.68;8.55;;;10.00;90.20;;;;;;4745324;30;20028;-79
2021/10/14 07:21:01;;;;;;;16.55;7.38;;;10.10;90.10;;;;;;4772507;30;20155;-79
2021/10/14 07:23:28;;;;;;;20.40;7.93;;;10.20;90.00;;;;;;4752244;30;20078;-79
2021/10/14 07:25:55;;;;;;;9.70;5.95;;;10.20;88.90;;;;;;4755559;30;20036;-79
2021/10/14 07:28:21;;;;;;;11.17;6.83;;;10.20;88.50;;;;;;4768913;30;20202;-79
2021/10/14 07:30:46;;;;;;;12.05;6.50;;;10.30;88.20;;;;;;4773392;29;20443;-79
2021/10/14 07:33:12;;;;;;;11.82;7.50;;;10.30;88.60;;;;;;4773609;29;20029;-79
2021/10/14 07:35:41;;;;;;;13.68;6.90;;;10.40;87.90;;;;;;4759135;30;20091;-79
2021/10/14 07:38:10;;;;;;;12.18;7.85;;;10.60;88.10;;;;;;4744836;30;20040;-79
2021/10/14 07:40:40;;;;;;;12.23;6.97;;;10.70;87.20;;;;;;4761885;30;20051;-79
2021/10/14 07:43:06;;;;;;;20.67;7.60;;;10.80;86.90;;;;;;4761748;30;20073;-79
2021/10/14 07:45:32;;;;;;;13.15;8.32;;;10.90;87.10;;;;;;4746439;30;20090;-79
2021/10/14 07:47:59;;;;;;;11.57;8.07;;;11.10;87.00;;;;;;4745593;30;20052;-79
2021/10/14 07:50:24;;;;;;;11.95;7.22;;;11.30;86.70;;;;;;4744040;30;20043;-79
2021/10/14 07:52:50;;;;;;;10.00;6.70;;;11.50;86.10;;;;;;4760483;30;20036;-79
2021/10/14 07:55:16;;;;;;;9.98;5.82;;;11.60;85.30;;;;;;4761198;30;20064;-79
2021/10/14 07:57:44;;;;;;;9.75;5.80;;;11.70;83.90;;;;;;4756550;30;20032;-79
2021/10/14 08:00:10;;;;;;;10.65;5.70;;;11.80;83.10;;;;;;4745538;30;20045;-79
2021/10/14 08:02:39;;;;;;;10.15;5.93;;;11.90;81.10;;;;;;4746223;30;20193;-79
2021/10/14 08:05:06;;;;;;;19.80;6.80;;;11.90;81.10;;;;;;4753567;30;20111;-79
2021/10/14 08:07:32;;;;;;;11.35;6.25;;;12.00;81.70;;;;;;4745972;30;20036;-79
2021/10/14 08:10:00;;;;;;;12.95;4.97;;;12.10;81.20;;;;;;4749433;30;20044;-79
2021/10/14 08:12:26;;;;;;;10.23;4.95;;;12.20;80.20;;;;;;4749968;30;20197;-79
2021/10/14 08:14:52;;;;;;;11.68;4.82;;;12.20;80.00;;;;;;4760398;30;20032;-79
2021/10/14 08:17:18;;;;;;;9.60;4.97;;;12.20;80.10;;;;;;4763472;30;20374;-79
2021/10/14 08:19:43;;;;;;;10.43;4.78;;;12.20;79.70;;;;;;4752081;30;20040;-79
2021/10/14 08:22:09;;;;;;;14.45;4.88;;;12.20;80.10;;;;;;4760096;30;20024;-79
2021/10/14 08:24:37;;;;;;;11.15;4.95;;;12.20;80.00;;;;;;4745036;30;20328;-79
2021/10/14 08:27:04;;;;;;;8.88;5.20;;;12.10;79.40;;;;;;4744294;30;20032;-79
2021/10/14 08:29:30;;;;;;;17.23;6.32;;;12.00;79.90;;;;;;4755175;30;20566;-79
2021/10/14 08:31:57;;;;;;;11.70;6.53;;;12.00;80.30;;;;;;4744966;30;20028;-79
2021/10/14 08:34:23;;;;;;;11.05;6.75;;;12.10;80.20;;;;;;4759671;30;20036;-79
2021/10/14 08:36:49;;;;;;;12.95;6.57;;;12.10;79.60;;;;;;4743690;30;20035;-78
2021/10/14 08:39:15;;;;;;;12.38;6.38;;;12.10;80.80;;;;;;4744391;30;20324;-79
2021/10/14 08:41:44;;;;;;;12.02;6.63;;;12.00;80.60;;;;;;4760379;30;20039;-79
2021/10/14 08:44:13;;;;;;;13.45;7.03;;;12.10;80.90;;;;;;4743688;30;20059;-79
2021/10/14 08:46:41;;;;;;;13.30;7.68;;;12.20;80.30;;;;;;4754526;30;20347;-79
2021/10/14 08:49:08;;;;;;;16.42;6.88;;;12.30;81.10;;;;;;4755278;30;20028;-79
2021/10/14 08:51:35;;;;;;;9.95;6.97;;;12.50;80.60;;;;;;4743480;30;20283;-79
2021/10/14 08:54:01;;;;;;;14.55;6.97;;;12.80;79.50;;;;;;4749411;30;20032;-79
2021/10/14 08:56:29;;;;;;;12.35;5.10;;;13.00;78.70;;;;;;4755095;30;20040;-79
2021/10/14 08:58:55;;;;;;;7.43;4.82;;;13.10;76.70;;;;;;4754471;30;20078;-79
2021/10/14 09:01:21;;;;;;;6.63;4.70;;;13.20;76.30;;;;;;4760403;30;20281;-79
2021/10/14 09:03:49;;;;;;;7.05;4.25;;;13.40;75.70;;;;;;4755131;30;20068;-80
2021/10/14 09:06:16;;;;;;;9.70;4.70;;;13.60;75.80;;;;;;4748827;30;20364;-79
2021/10/14 09:08:46;;;;;;;;;;;13.80;73.60;;;;;;4755094;30;20103;-79
2021/10/14 09:11:13;;;;;;;7.63;3.65;;;13.90;73.60;;;;;;4756877;30;19945;-79
2021/10/14 09:13:46;;;;;;;;;;;14.00;72.90;;;;;;4757687;30;20216;-79
2021/10/14 09:16:28;;;;;;;12.98;4.95;;;14.00;72.20;;;;;;4770030;30;20207;-79
2021/10/14 09:18:57;;;;;;;10.32;3.90;;;14.10;70.20;;;;;;4770148;29;20032;-80
2021/10/14 09:21:30;;;;;;;8.85;5.20;;;14.10;70.50;;;;;;4736922;30;20331;-79
2021/10/14 09:24:00;;;;;;;7.25;4.32;;;14.30;70.80;;;;;;4760120;30;20209;-79
2021/10/14 09:26:33;;;;;;;9.45;4.15;;;14.30;70.90;;;;;;4745387;30;20066;-79
2021/10/14 09:29:12;;;;;;;16.33;5.88;;;14.40;70.50;;;;;;4735218;30;20044;-79
2021/10/14 09:31:50;;;;;;;8.65;5.28;;;14.60;70.90;;;;;;4753219;30;20040;-79
2021/10/14 09:34:41;;;;;;;9.27;5.00;;;14.70;69.10;;;;;;4754168;30;20276;-79
2021/10/14 09:37:26;;;;;;;8.18;4.43;;;14.80;70.00;;;;;;4754300;30;20090;-79
2021/10/14 09:40:09;;;;;;;7.65;4.53;;;14.80;70.10;;;;;;4755731;30;20043;-79
2021/10/14 09:42:55;;;;;;;9.80;5.90;;;14.80;69.30;;;;;;4759852;30;20054;-79
2021/10/14 09:45:26;;;;;;;10.10;5.72;;;14.90;70.80;;;;;;4753687;30;20040;-79
2021/10/14 09:48:12;;;;;;;9.43;5.00;;;15.00;68.80;;;;;;4772379;30;20067;-79
2021/10/14 09:50:43;;;;;;;13.45;5.03;;;15.00;68.50;;;;;;4744721;30;20352;-79
2021/10/14 09:53:16;;;;;;;10.20;4.80;;;15.10;69.40;;;;;;4754333;30;20066;-79
2021/10/14 09:55:43;;;;;;;11.52;4.90;;;15.10;68.20;;;;;;4748328;30;20045;-79
2021/10/14 09:58:09;;;;;;;9.82;4.38;;;15.20;68.40;;;;;;4759637;30;20387;-79
2021/10/14 10:00:38;;;;;;;8.80;4.20;;;15.30;68.10;;;;;;4754049;30;20044;-79
2021/10/14 10:03:07;;;;;;;10.40;4.82;;;15.30;67.90;;;;;;4754454;30;20107;-79
2021/10/14 10:05:34;;;;;;;10.60;4.22;;;15.50;68.30;;;;;;4754386;30;20046;-79
2021/10/14 10:08:08;;;;;;;;;;;15.40;66.40;;;;;;4754799;30;20047;-79
2021/10/14 10:10:37;;;;;;;9.23;4.85;;;15.30;67.30;;;;;;4759477;30;20233;-79
2021/10/14 10:13:04;;;;;;;9.57;4.57;;;15.10;66.00;;;;;;4747790;30;20044;-79
2021/10/14 10:15:41;;;;;;;8.15;4.10;;;15.20;67.00;;;;;;4742665;30;20041;-79
2021/10/14 10:18:28;;;;;;;10.73;4.90;;;15.30;66.10;;;;;;4753828;30;20801;-79
2021/10/14 10:20:56;;;;;;;10.13;4.90;;;15.60;67.30;;;;;;4746502;30;20038;-79
2021/10/14 10:23:43;;;;;;;15.50;4.82;;;15.60;65.30;;;;;;4755491;30;20041;-79
2021/10/14 10:26:34;;;;;;;8.80;4.40;;;15.80;65.40;;;;;;4748343;30;20040;-79
2021/10/14 10:29:02;;;;;;;7.07;3.83;;;16.00;66.00;;;;;;4750695;30;20107;-79
2021/10/14 10:31:49;;;;;;;7.30;3.83;;;16.00;64.40;;;;;;4742765;30;20108;-79
2021/10/14 10:37:12;;;;;;;;;;;16.30;63.30;;;;;;4753871;30;20044;-79
2021/10/14 10:39:55;;;;;;;;;;;16.30;62.10;;;;;;4764548;30;19918;-79
2021/10/14 10:42:40;;;;;;;10.43;4.20;;;15.90;62.20;;;;;;4761637;30;19918;-78
2021/10/14 10:45:09;;;;;;;12.82;3.53;;;15.80;63.60;;;;;;4755738;30;20037;-79
2021/10/14 10:47:42;;;;;;;9.55;4.32;;;15.60;63.50;;;;;;4755005;30;20384;-79
2021/10/14 10:50:23;;;;;;;6.43;3.35;;;15.40;64.50;;;;;;4757006;30;20040;-79
2021/10/14 10:53:04;;;;;;;6.72;3.03;;;15.20;64.90;;;;;;4758835;30;20078;-79
2021/10/14 10:55:45;;;;;;;7.60;3.70;;;15.20;64.60;;;;;;4752327;30;20442;-79
2021/10/14 10:58:13;;;;;;;6.30;3.33;;;15.20;65.00;;;;;;4754942;30;20036;-79
2021/10/14 11:00:41;;;;;;;9.48;4.25;;;15.20;65.50;;;;;;4746632;30;20041;-79
2021/10/14 11:03:18;;;;;;;11.05;4.72;;;15.20;65.90;;;;;;4772305;30;20335;-79
2021/10/14 11:05:49;;;;;;;8.70;5.07;;;15.20;65.30;;;;;;4756969;30;20103;-79
2021/10/14 11:08:21;;;;;;;9.10;4.35;;;15.00;66.30;;;;;;4746143;30;20320;-79
2021/10/14 11:10:53;;;;;;;8.07;3.92;;;14.90;65.90;;;;;;4752462;30;20051;-79
2021/10/14 11:13:20;;;;;;;8.90;4.20;;;15.00;66.30;;;;;;4747943;30;20340;-78
2021/10/14 11:15:52;;;;;;;6.53;3.97;;;15.10;64.70;;;;;;4748216;30;20116;-79
2021/10/14 11:18:18;;;;;;;10.45;4.90;;;15.10;65.20;;;;;;4761742;30;20108;-79
2021/10/14 11:20:50;;;;;;;10.88;4.43;;;15.20;66.80;;;;;;4761380;30;20036;-79
2021/10/14 11:23:16;;;;;;;6.82;3.63;;;15.30;65.90;;;;;;4758381;30;20099;-80
2021/10/14 11:25:42;;;;;;;5.70;3.60;;;15.50;66.10;;;;;;4761137;30;20090;-81
2021/10/14 11:28:10;;;;;;;4.68;3.17;;;15.50;65.30;;;;;;4759448;30;20051;-82
2021/10/14 11:30:39;;;;;;;4.18;2.58;;;15.40;64.50;;;;;;4757911;30;20066;-77
2021/10/14 11:33:11;;;;;;;5.80;2.70;;;15.50;64.90;;;;;;4756205;30;20075;-79
2021/10/14 11:35:38;;;;;;;4.00;2.53;;;15.60;64.40;;;;;;4761710;30;20032;-79
2021/10/14 11:38:12;;;;;;;6.85;3.05;;;15.70;64.80;;;;;;4761514;30;20068;-79
2021/10/14 11:40:39;;;;;;;5.03;3.08;;;15.80;64.60;;;;;;4761570;30;20036;-78
2021/10/14 11:43:05;;;;;;;;;;;15.60;64.70;;;;;;4762783;30;20099;-79
2021/10/14 11:45:31;;;;;;;5.00;2.90;;;15.60;64.70;;;;;;4763067;30;20225;-79
2021/10/14 11:47:57;;;;;;;4.40;2.67;;;15.70;65.30;;;;;;4748530;30;20267;-79
2021/10/14 11:50:32;;;;;;;5.40;3.53;;;15.90;65.30;;;;;;4743192;30;20033;-79
2021/10/14 11:53:02;;;;;;;7.15;4.05;;;15.70;65.50;;;;;;4744403;30;20039;-79
2021/10/14 11:55:28;;;;;;;6.60;3.40;;;15.70;65.80;;;;;;4751548;30;20028;-79
2021/10/14 11:58:00;;;;;;;6.40;3.75;;;15.60;65.80;;;;;;4749402;30;20103;-79
2021/10/14 12:00:29;;;;;;;7.85;4.10;;;15.70;65.70;;;;;;4747816;30;20067;-77
2021/10/14 12:02:57;;;;;;;6.45;3.55;;;15.80;65.80;;;;;;4760565;30;20035;-80
2021/10/14 12:05:23;;;;;;;4.93;3.55;;;15.70;65.90;;;;;;4760003;30;20116;-79
2021/10/14 12:07:50;;;;;;;5.82;3.20;;;15.60;66.20;;;;;;4761321;30;20354;-78
2021/10/14 12:10:41;;;;;;;5.20;3.10;;;15.70;67.60;;;;;;4753180;30;20102;-77
2021/10/14 12:13:08;;;;;;;4.20;3.00;;;15.70;65.90;;;;;;4763552;30;20188;-80
2021/10/14 12:15:34;;;;;;;;;;;15.70;67.60;;;;;;4756553;30;20224;-79
2021/10/14 12:18:00;;;;;;;4.47;2.97;;;16.00;67.20;;;;;;4743802;30;19910;-79
2021/10/14 12:20:27;;;;;;;7.47;3.13;;;16.30;65.80;;;;;;4761205;30;20054;-79
2021/10/14 12:22:57;;;;;;;;;;;16.00;64.70;;;;;;4755586;30;20036;-79
2021/10/14 12:25:34;;;;;;;8.20;3.53;;;15.80;65.10;;;;;;4750704;30;20209;-80
2021/10/14 12:28:00;;;;;;;;;;;15.60;65.30;;;;;;4755340;30;20344;-80
2021/10/14 12:30:33;;;;;;;5.18;3.40;;;15.50;66.30;;;;;;4743760;30;20275;-79
2021/10/14 12:33:11;;;;;;;5.60;3.00;;;15.40;66.20;;;;;;4756519;30;20331;-79
2021/10/14 12:35:59;;;;;;;7.15;3.15;;;15.30;66.30;;;;;;4753771;30;20288;-79
2021/10/14 12:38:37;;;;;;;4.75;3.00;;;15.30;67.50;;;;;;4752941;30;20270;-79
2021/10/14 12:41:06;;;;;;;7.40;3.10;;;15.50;67.90;;;;;;4754844;30;20072;-79
2021/10/14 12:44:00;;;;;;;6.22;3.53;;;15.70;67.80;;;;;;4753410;30;20036;-79
2021/10/14 12:46:37;;;;;;;5.82;3.30;;;15.80;67.00;;;;;;4753452;30;20063;-79
2021/10/14 12:51:52;;;;;;;3.97;3.20;;;15.20;67.70;;;;;;4767343;30;20033;-79
2021/10/14 12:54:20;;;;;;;5.90;3.15;;;15.30;68.70;;;;;;4760559;30;20032;-79
2021/10/14 12:56:47;;;;;;;8.85;2.80;;;15.30;68.60;;;;;;4755346;30;20039;-79
2021/10/14 12:59:15;;;;;;;6.45;3.80;;;15.30;68.70;;;;;;4760307;30;20040;-79
2021/10/14 13:01:45;;;;;;;5.30;3.55;;;15.30;68.80;;;;;;4755219;30;20103;-79
2021/10/14 13:04:11;;;;;;;8.32;2.80;;;14.90;69.30;;;;;;4751380;30;20315;-79
2021/10/14 13:06:38;;;;;;;4.33;2.73;;;15.00;70.10;;;;;;4762169;30;20036;-79
2021/10/14 13:09:04;;;;;;;4.43;3.57;;;15.10;69.20;;;;;;4762391;30;20339;-79
2021/10/14 13:11:33;;;;;;;8.60;3.60;;;15.10;69.20;;;;;;4754776;30;20395;-79
2021/10/14 13:14:00;;;;;;;4.00;3.15;;;15.00;69.70;;;;;;4758289;30;20043;-79
2021/10/14 13:16:26;;;;;;;7.63;3.60;;;15.00;70.10;;;;;;4757415;30;20042;-79
2021/10/14 13:18:52;;;;;;;7.53;3.22;;;14.70;69.90;;;;;;4754923;30;20028;-78
2021/10/14 13:21:18;;;;;;;5.35;3.47;;;14.50;70.30;;;;;;4754651;30;20074;-79
2021/10/14 13:23:44;;;;;;;7.10;3.08;;;14.30;71.80;;;;;;4743380;30;20036;-79
2021/10/14 13:26:10;;;;;;;3.97;3.08;;;14.10;72.50;;;;;;4750186;30;20051;-79
2021/10/14 13:28:38;;;;;;;5.40;3.10;;;14.00;73.10;;;;;;4751153;30;20114;-79
2021/10/14 13:31:09;;;;;;;5.75;2.72;;;14.00;73.30;;;;;;4752871;30;20264;-79
2021/10/14 13:33:36;;;;;;;6.30;2.80;;;14.00;73.00;;;;;;4751174;30;20347;-79
2021/10/14 13:36:09;;;;;;;6.07;2.85;;;14.20;73.00;;;;;;4749670;30;20033;-78
2021/10/14 13:38:35;;;;;;;4.72;3.10;;;14.00;73.40;;;;;;4749412;30;20044;-79
2021/10/14 13:41:08;;;;;;;8.18;3.88;;;13.90;73.80;;;;;;4749986;30;20044;-79
2021/10/14 13:43:40;;;;;;;5.82;3.45;;;13.70;74.60;;;;;;4749171;30;20079;-78
2021/10/14 13:46:06;;;;;;;6.47;3.53;;;13.60;75.20;;;;;;4753411;30;20059;-78
2021/10/14 13:48:33;;;;;;;5.22;2.80;;;13.50;75.50;;;;;;4741352;30;20047;-79
2021/10/14 13:50:59;;;;;;;4.53;3.00;;;13.60;75.90;;;;;;4752899;30;20332;-78
2021/10/14 13:53:28;;;;;;;4.43;3.13;;;13.60;76.40;;;;;;4787834;30;20305;-79
2021/10/14 13:55:54;;;;;;;4.32;3.10;;;13.50;76.30;;;;;;4784665;29;20058;-78
2021/10/14 13:58:20;;;;;;;5.05;3.42;;;13.60;76.30;;;;;;4786286;30;20035;-79
2021/10/14 14:00:47;;;;;;;6.30;3.80;;;13.60;76.40;;;;;;4786175;30;20062;-79
2021/10/14 14:03:15;;;;;;;9.20;3.92;;;13.60;76.70;;;;;;4786023;30;20394;-79
2021/10/14 14:05:46;;;;;;;10.95;4.75;;;13.50;76.90;;;;;;4787925;29;20046;-79
2021/10/14 14:08:14;;;;;;;5.50;4.13;;;13.60;77.00;;;;;;4786007;30;20047;-79
2021/10/14 14:10:40;;;;;;;6.57;4.35;;;13.60;77.00;;;;;;4779047;30;20106;-79
2021/10/14 14:13:06;;;;;;;8.05;4.25;;;13.60;77.50;;;;;;4794588;29;20043;-79
2021/10/14 14:15:34;;;;;;;8.17;4.37;;;13.60;77.90;;;;;;4797609;29;20366;-79
2021/10/14 14:18:01;;;;;;;7.50;4.78;;;13.60;77.50;;;;;;4795279;29;20322;-79
2021/10/14 14:20:27;;;;;;;8.73;4.53;;;13.50;77.20;;;;;;4777235;30;20035;-78
2021/10/14 14:22:54;;;;;;;6.72;5.28;;;13.40;78.40;;;;;;4782986;30;20110;-79
2021/10/14 14:25:21;;;;;;;9.23;4.38;;;13.30;78.80;;;;;;4751443;30;20331;-78
2021/10/14 14:27:46;;;;;;;;;;;13.40;79.00;;;;;;4766955;30;20336;-78
2021/10/14 14:30:12;;;;;;;9.57;4.27;;;13.40;78.90;;;;;;4762435;30;19914;-79
2021/10/14 14:32:39;;;;;;;7.85;5.07;;;13.40;79.40;;;;;;4757024;30;20108;-79
2021/10/14 14:35:05;;;;;;;6.55;4.38;;;13.40;79.40;;;;;;4748366;30;20220;-79
2021/10/14 14:37:33;;;;;;;5.60;4.40;;;13.30;79.40;;;;;;4754340;30;20043;-79
2021/10/14 14:39:59;;;;;;;7.32;4.47;;;13.40;79.90;;;;;;4760939;30;20216;-79
2021/10/14 14:42:25;;;;;;;7.63;4.72;;;13.30;79.90;;;;;;4759581;30;20032;-79
2021/10/14 14:44:51;;;;;;;6.03;4.22;;;13.30;80.20;;;;;;4750358;30;20119;-79
2021/10/14 14:47:17;;;;;;;6.70;4.82;;;13.30;80.40;;;;;;4740169;30;20063;-79
2021/10/14 14:49:47;;;;;;;7.70;4.18;;;13.20;80.20;;;;;;4761497;30;20032;-79
2021/10/14 14:52:13;;;;;;;8.30;4.72;;;13.10;80.80;;;;;;4748599;30;20216;-79
2021/10/14 14:54:39;;;;;;;8.75;4.28;;;13.20;81.10;;;;;;4750269;30;20095;-79
2021/10/14 14:57:07;;;;;;;5.78;4.28;;;13.10;81.70;;;;;;4752070;30;20037;-79
2021/10/14 14:59:33;;;;;;;7.50;4.72;;;13.20;81.10;;;;;;4759020;30;20047;-79
2021/10/14 15:01:59;;;;;;;12.15;6.22;;;13.00;81.10;;;;;;4761908;30;20339;-78
2021/10/14 15:04:26;;;;;;;7.10;4.80;;;13.00;82.20;;;;;;4767071;30;20024;-78
2021/10/14 15:06:51;;;;;;;;;;;12.90;82.00;;;;;;4764867;30;20032;-79
2021/10/14 15:09:17;;;;;;;6.53;4.77;;;12.80;82.50;;;;;;4757685;30;19981;-79
2021/10/14 15:11:43;;;;;;;10.90;5.18;;;12.80;82.70;;;;;;4744878;30;20336;-79
2021/10/14 15:14:09;;;;;;;10.73;5.75;;;12.80;83.00;;;;;;4765933;30;20382;-79
2021/10/14 15:16:35;;;;;;;7.15;5.22;;;12.80;83.30;;;;;;4764683;30;20032;-79
2021/10/14 15:19:02;;;;;;;8.25;4.43;;;12.90;82.90;;;;;;4762067;30;20255;-79
2021/10/14 15:21:28;;;;;;;5.78;4.82;;;12.80;82.90;;;;;;4761749;30;20042;-79
2021/10/14 15:23:55;;;;;;;5.70;4.40;;;12.70;83.10;;;;;;4750131;30;20063;-79
2021/10/14 15:26:22;;;;;;;5.70;4.28;;;12.60;83.50;;;;;;4766873;30;20337;-78
2021/10/14 15:28:48;;;;;;;5.20;3.75;;;12.70;83.40;;;;;;4766355;30;20220;-79
2021/10/14 15:31:14;;;;;;;4.57;3.70;;;12.60;83.70;;;;;;4762398;30;20224;-78
2021/10/14 15:33:40;;;;;;;5.97;3.92;;;12.60;83.90;;;;;;4746877;30;20059;-79
2021/10/14 15:36:11;;;;;;;7.55;4.53;;;12.60;84.20;;;;;;4744792;30;20038;-78
2021/10/14 15:38:42;;;;;;;6.35;4.70;;;12.60;84.20;;;;;;4744798;30;20340;-78
2021/10/14 15:41:14;;;;;;;5.68;4.05;;;12.50;84.50;;;;;;4754782;30;20070;-78
2021/10/14 15:43:40;;;;;;;6.35;4.43;;;12.50;84.70;;;;;;4745461;30;20073;-79